Time;durP1;ratioP1;P1;durP2;ratioP2;P2;SDS_P1;SDS_P2;PMS_P1;PMS_P2;Temp;Humidity;BMP_temperature;BMP_pressure;BME280_temperature;BME280_humidity;BME280_pressure;Samples;Min_cycle;Max_cycle;Signal;HPM_P1;HPM_P2
2021/11/10 00:00:50;;;;;;;14.57;9.93;;;;;;;3.39;100.00;97129.19;5038504;28;21273;-56
2021/11/10 00:03:19;;;;;;;12.68;9.82;;;;;;;3.24;100.00;97130.88;5026748;28;20077;-58
2021/11/10 00:05:47;;;;;;;10.70;8.80;;;;;;;3.27;100.00;97133.31;5034560;28;20076;-59
2021/11/10 00:08:16;;;;;;;11.32;8.50;;;;;;;3.04;100.00;97128.50;5030574;28;20068;-54
2021/11/10 00:10:44;;;;;;;11.63;9.02;;;;;;;2.87;100.00;97142.41;5027391;28;20455;-59
2021/11/10 00:13:20;;;;;;;15.50;9.93;;;;;;;3.11;100.00;97150.69;5042676;28;20077;-57
2021/11/10 00:15:52;;;;;;;11.30;9.10;;;;;;;2.74;100.00;97160.44;5034044;28;20083;-57
2021/11/10 00:18:22;;;;;;;11.95;8.82;;;;;;;2.40;100.00;97165.66;5030676;28;20068;-60
2021/11/10 00:20:50;;;;;;;10.25;7.80;;;;;;;2.54;100.00;97161.44;5031479;28;20061;-59
2021/11/10 00:23:19;;;;;;;12.48;8.75;;;;;;;3.13;100.00;97171.44;5027455;28;20778;-60
2021/11/10 00:25:48;;;;;;;14.10;10.00;;;;;;;2.83;100.00;97165.19;5037001;28;20467;-59
2021/11/10 00:28:18;;;;;;;13.45;9.55;;;;;;;3.16;100.00;97158.25;5017769;28;20100;-58
2021/11/10 00:30:46;;;;;;;14.13;10.20;;;;;;;3.31;100.00;97152.25;5026614;28;20522;-58
2021/11/10 00:33:15;;;;;;;15.32;9.50;;;;;;;3.42;100.00;97156.88;5027120;28;20073;-61
2021/11/10 00:35:43;;;;;;;13.80;9.52;;;;;;;3.03;100.00;97161.53;5033226;28;20588;-59
2021/11/10 00:38:12;;;;;;;17.65;11.25;;;;;;;2.74;100.00;97150.00;5039459;28;20072;-56
2021/11/10 00:40:40;;;;;;;13.73;9.93;;;;;;;2.72;100.00;97153.59;5030372;28;20077;-57
2021/11/10 00:43:09;;;;;;;12.68;9.57;;;;;;;2.89;100.00;97148.41;5034607;28;20089;-56
2021/11/10 00:45:39;;;;;;;15.65;9.90;;;;;;;2.72;100.00;97144.06;5033051;28;20069;-54
2021/11/10 00:48:10;;;;;;;12.85;9.65;;;;;;;2.69;100.00;97143.38;5031645;28;20079;-56
2021/11/10 00:50:39;;;;;;;12.55;9.15;;;;;;;2.56;100.00;97149.19;5029457;28;20079;-54
2021/11/10 00:53:07;;;;;;;13.15;9.73;;;;;;;2.96;100.00;97143.69;5021459;28;20530;-58
2021/11/10 00:55:36;;;;;;;16.95;10.00;;;;;;;2.75;100.00;97145.66;5000813;28;20626;-61
2021/11/10 00:58:05;;;;;;;15.43;9.45;;;;;;;3.16;100.00;97138.25;5025833;28;20528;-59
2021/11/10 01:00:33;;;;;;;13.82;10.32;;;;;;;3.38;100.00;97140.56;5013305;28;20061;-59
2021/11/10 01:03:04;;;;;;;14.15;9.52;;;;;;;3.36;100.00;97133.72;5018974;28;20080;-60
2021/11/10 01:05:34;;;;;;;16.00;10.45;;;;;;;3.47;100.00;97132.22;5022105;28;20058;-57
2021/11/10 01:08:03;;;;;;;13.63;10.27;;;;;;;3.54;100.00;97127.50;5023749;28;20073;-55
2021/11/10 01:10:32;;;;;;;14.98;9.90;;;;;;;3.31;100.00;97131.38;5024693;28;20084;-58
2021/11/10 01:13:01;;;;;;;12.98;10.02;;;;;;;3.40;100.00;97136.09;5031489;28;20092;-58
2021/11/10 01:15:30;;;;;;;15.95;9.73;;;;;;;3.17;100.00;97131.31;5038334;28;20073;-57
2021/11/10 01:17:58;;;;;;;12.93;9.38;;;;;;;3.03;100.00;97135.47;5037609;28;20076;-55
2021/11/10 01:20:28;;;;;;;14.75;10.30;;;;;;;3.21;100.00;97130.19;5037523;28;20080;-55
2021/11/10 01:22:58;;;;;;;14.02;10.07;;;;;;;3.33;100.00;97126.91;5031034;28;20068;-58
2021/11/10 01:25:28;;;;;;;12.38;10.07;;;;;;;3.07;100.00;97115.31;5041872;28;20076;-57
2021/11/10 01:27:56;;;;;;;15.32;9.20;;;;;;;3.02;100.00;97112.94;5029015;28;20541;-60
2021/11/10 01:30:26;;;;;;;17.58;9.63;;;;;;;3.19;100.00;97113.78;5040173;28;20081;-55
2021/11/10 01:32:55;;;;;;;13.93;9.40;;;;;;;2.80;100.00;97118.44;5025201;28;20085;-60
2021/11/10 01:35:23;;;;;;;12.63;10.07;;;;;;;2.74;100.00;97110.13;5025040;28;20064;-59
2021/11/10 01:37:53;;;;;;;14.57;10.88;;;;;;;2.88;100.00;97115.44;5040070;28;20546;-56
2021/11/10 01:40:22;;;;;;;15.23;10.35;;;;;;;3.12;100.00;97117.66;5036702;28;20140;-59
2021/11/10 01:42:53;;;;;;;17.20;9.70;;;;;;;2.98;100.00;97108.81;5015999;28;22238;-58
2021/11/10 01:45:24;;;;;;;15.23;10.85;;;;;;;3.03;100.00;97114.63;5030188;28;20076;-56
2021/11/10 01:47:52;;;;;;;15.73;10.90;;;;;;;3.27;100.00;97111.63;5032481;28;20042;-57
2021/11/10 01:50:21;;;;;;;16.05;10.30;;;;;;;2.93;100.00;97108.22;5039758;28;20084;-60
2021/11/10 01:52:50;;;;;;;11.70;9.23;;;;;;;2.91;100.00;97117.88;5039599;28;20069;-57
2021/11/10 01:55:20;;;;;;;12.45;9.68;;;;;;;2.11;100.00;97124.56;5036699;28;20494;-58
2021/11/10 01:57:49;;;;;;;13.52;9.52;;;;;;;2.70;100.00;97119.00;5032046;28;20041;-56
2021/11/10 02:00:20;;;;;;;11.65;8.48;;;;;;;2.48;100.00;97127.06;5030670;28;20087;-57
2021/11/10 02:02:51;;;;;;;12.25;8.20;;;;;;;2.10;100.00;97127.28;5020841;28;20359;-58
2021/11/10 02:05:20;;;;;;;11.63;9.02;;;;;;;2.56;100.00;97117.13;5025060;28;20076;-57
2021/11/10 02:07:50;;;;;;;10.68;8.73;;;;;;;2.57;100.00;97119.63;5037673;28;20080;-58
2021/11/10 02:10:24;;;;;;;12.77;9.60;;;;;;;2.38;100.00;97121.53;5039138;28;20073;-53
2021/11/10 02:12:53;;;;;;;12.60;10.15;;;;;;;2.46;100.00;97115.91;5033493;28;20913;-59
2021/11/10 02:15:23;;;;;;;12.43;9.52;;;;;;;2.52;100.00;97111.25;5034292;28;20080;-57
2021/11/10 02:17:53;;;;;;;15.85;9.65;;;;;;;2.69;100.00;97118.19;5037076;28;20061;-56
2021/11/10 02:20:23;;;;;;;14.60;9.90;;;;;;;2.55;100.00;97105.03;5041199;28;20034;-58
2021/11/10 02:22:53;;;;;;;19.27;10.32;;;;;;;2.19;100.00;97115.53;5032219;28;20068;-56
2021/11/10 02:25:27;;;;;;;14.55;10.57;;;;;;;2.80;100.00;97112.41;5031334;28;20104;-58
2021/11/10 02:27:56;;;;;;;14.35;10.57;;;;;;;2.61;100.00;97105.56;5031870;28;20541;-57
2021/11/10 02:30:25;;;;;;;14.27;10.13;;;;;;;2.29;100.00;97104.59;5035297;28;20537;-58
2021/11/10 02:32:55;;;;;;;19.38;11.60;;;;;;;2.86;100.00;97093.84;5032007;28;20073;-56
2021/11/10 02:35:25;;;;;;;17.80;10.73;;;;;;;2.67;100.00;97093.97;5034971;28;20061;-57
2021/11/10 02:37:57;;;;;;;24.00;13.00;;;;;;;2.96;100.00;97092.44;5040240;28;20064;-60
2021/11/10 02:40:26;;;;;;;15.52;11.02;;;;;;;2.99;100.00;97091.41;5031452;28;20084;-54
2021/11/10 02:42:55;;;;;;;14.93;11.00;;;;;;;2.79;100.00;97087.28;5038063;28;20076;-59
2021/11/10 02:45:25;;;;;;;17.92;11.68;;;;;;;2.93;100.00;97095.19;5031734;28;20072;-53
2021/11/10 02:47:54;;;;;;;22.20;11.87;;;;;;;2.99;100.00;97087.03;5033016;28;20067;-57
2021/11/10 02:50:22;;;;;;;22.55;12.50;;;;;;;2.82;100.00;97090.56;5030426;28;20519;-58
2021/11/10 02:52:51;;;;;;;25.33;12.80;;;;;;;3.26;100.00;97091.69;5013277;28;20550;-55
2021/11/10 02:55:20;;;;;;;23.48;13.77;;;;;;;2.66;100.00;97089.69;5035412;28;20100;-57
2021/11/10 02:57:49;;;;;;;21.65;12.48;;;;;;;2.78;100.00;97093.41;5035926;28;20253;-60
2021/11/10 03:00:17;;;;;;;26.73;12.32;;;;;;;2.90;100.00;97099.75;5033376;28;20065;-56
2021/11/10 03:02:46;;;;;;;29.00;12.23;;;;;;;3.04;100.00;97099.84;5026798;28;20057;-58
2021/11/10 03:05:15;;;;;;;29.45;12.90;;;;;;;3.16;100.00;97093.94;5021523;28;20073;-57
2021/11/10 03:07:43;;;;;;;52.92;13.00;;;;;;;3.03;100.00;97090.34;5030944;28;20077;-57
2021/11/10 03:10:12;;;;;;;47.05;12.90;;;;;;;2.92;100.00;97088.28;5034270;28;20081;-56
2021/11/10 03:12:42;;;;;;;28.88;13.27;;;;;;;2.99;100.00;97081.81;5028377;28;20065;-58
2021/11/10 03:15:10;;;;;;;25.77;13.02;;;;;;;2.51;100.00;97086.13;5032838;28;20057;-55
2021/11/10 03:17:39;;;;;;;34.25;13.23;;;;;;;2.43;100.00;97077.03;5031885;28;20594;-57
2021/11/10 03:20:09;;;;;;;32.72;12.57;;;;;;;2.43;100.00;97075.25;5035206;28;20057;-56
2021/11/10 03:22:38;;;;;;;21.55;13.05;;;;;;;2.87;100.00;97069.47;5017611;28;20076;-56
2021/11/10 03:25:07;;;;;;;21.20;12.20;;;;;;;2.22;100.00;97071.16;5035778;28;20085;-58
2021/11/10 03:27:36;;;;;;;23.48;13.13;;;;;;;2.26;100.00;97073.53;5030222;28;20068;-59
2021/11/10 03:30:07;;;;;;;19.63;12.18;;;;;;;2.23;100.00;97062.44;5031640;28;20115;-56
2021/11/10 03:32:35;;;;;;;20.10;12.65;;;;;;;2.18;100.00;97062.69;5030547;28;20186;-55
2021/11/10 03:35:04;;;;;;;26.10;13.07;;;;;;;1.86;100.00;97067.75;5025326;28;20062;-54
2021/11/10 03:37:34;;;;;;;22.05;12.65;;;;;;;1.84;100.00;97066.97;4996651;28;20089;-56
2021/11/10 03:40:03;;;;;;;18.63;11.35;;;;;;;1.75;100.00;97069.16;5023658;28;20105;-56
2021/11/10 03:42:31;;;;;;;17.63;11.50;;;;;;;1.71;100.00;97076.28;5001721;28;21011;-58
2021/11/10 03:45:00;;;;;;;20.70;13.35;;;;;;;1.92;100.00;97070.94;5019140;28;20076;-55
2021/11/10 03:47:30;;;;;;;18.02;12.10;;;;;;;1.54;100.00;97073.66;5018205;28;20068;-56
2021/11/10 03:50:00;;;;;;;20.08;12.95;;;;;;;1.96;100.00;97070.72;5022925;28;20065;-52
2021/11/10 03:52:28;;;;;;;23.33;12.23;;;;;;;2.42;100.00;97068.38;5034088;28;20065;-57
2021/11/10 03:54:57;;;;;;;22.90;14.05;;;;;;;2.63;100.00;97065.56;5039289;28;20083;-53
2021/11/10 03:57:27;;;;;;;;;;;;;;;2.70;100.00;97056.53;5038255;28;20056;-55
2021/11/10 03:59:56;;;;;;;23.42;12.00;;;;;;;2.58;100.00;97063.19;5035565;28;19979;-59
2021/11/10 04:02:25;;;;;;;20.58;12.27;;;;;;;2.81;100.00;97059.38;5027591;28;20065;-54
2021/11/10 04:04:55;;;;;;;18.40;12.40;;;;;;;2.86;100.00;97062.59;5009110;28;20463;-53
2021/11/10 04:07:23;;;;;;;27.13;13.82;;;;;;;2.83;100.00;97066.19;5040414;28;20041;-56
2021/11/10 04:09:52;;;;;;;19.58;11.48;;;;;;;2.35;100.00;97075.66;5013211;28;20924;-57
2021/11/10 04:12:20;;;;;;;18.98;11.07;;;;;;;2.44;100.00;97079.53;5028834;28;20073;-60
2021/11/10 04:14:49;;;;;;;19.63;12.40;;;;;;;2.62;100.00;97069.94;5026719;28;20065;-58
2021/11/10 04:17:17;;;;;;;18.73;12.15;;;;;;;2.80;100.00;97076.78;5029719;28;20069;-58
2021/11/10 04:19:46;;;;;;;17.52;11.68;;;;;;;2.76;100.00;97069.22;5033631;28;20049;-57
2021/11/10 04:22:20;;;;;;;19.25;11.55;;;;;;;2.90;100.00;97077.13;5030720;28;20551;-57
2021/11/10 04:24:48;;;;;;;19.70;11.48;;;;;;;2.53;100.00;97071.25;5012884;28;20076;-57
2021/11/10 04:27:18;;;;;;;22.40;12.63;;;;;;;2.02;100.00;97079.97;5008370;28;20061;-54
2021/11/10 04:29:47;;;;;;;18.13;12.73;;;;;;;2.03;100.00;97081.63;5005131;28;20080;-56
2021/11/10 04:32:16;;;;;;;19.33;12.45;;;;;;;2.09;100.00;97069.16;5002250;28;20080;-56
2021/11/10 04:34:44;;;;;;;17.65;12.63;;;;;;;1.90;100.00;97071.03;5021482;28;20137;-54
2021/11/10 04:37:14;;;;;;;18.90;12.38;;;;;;;1.96;100.00;97077.66;5037102;28;20269;-56
2021/11/10 04:39:45;;;;;;;18.45;13.38;;;;;;;2.17;100.00;97073.13;5028436;28;20511;-54
2021/11/10 04:42:14;;;;;;;16.50;12.75;;;;;;;2.36;100.00;97068.69;5032830;28;20079;-59
2021/11/10 04:44:44;;;;;;;18.98;11.68;;;;;;;2.68;100.00;97067.00;5029686;28;20451;-55
2021/11/10 04:47:12;;;;;;;18.60;12.10;;;;;;;2.61;100.00;97065.63;5037237;28;20084;-56
2021/11/10 04:49:41;;;;;;;20.85;12.32;;;;;;;2.54;100.00;97069.50;5027086;28;20077;-56
2021/11/10 04:52:10;;;;;;;16.92;11.43;;;;;;;2.30;100.00;97069.00;5029866;28;20085;-54
2021/11/10 04:54:38;;;;;;;18.35;11.35;;;;;;;2.06;100.00;97069.31;5028810;28;20081;-58
2021/11/10 04:57:08;;;;;;;17.65;11.65;;;;;;;2.57;100.00;97083.19;5011620;28;20068;-59
2021/11/10 04:59:37;;;;;;;18.08;11.68;;;;;;;2.44;100.00;97079.53;5029360;28;20083;-55
2021/11/10 05:02:24;;;;;;;16.63;11.93;;;;;;;2.56;100.00;97083.28;5026491;28;20464;-58
2021/11/10 05:04:54;;;;;;;20.77;11.75;;;;;;;2.56;100.00;97076.31;5016606;28;20455;-57
2021/11/10 05:07:23;;;;;;;19.08;12.27;;;;;;;2.64;100.00;97069.84;5028873;28;20296;-57
2021/11/10 05:09:54;;;;;;;24.48;11.70;;;;;;;2.22;100.00;97081.56;5032522;28;20069;-58
2021/11/10 05:12:24;;;;;;;17.13;11.20;;;;;;;2.28;100.00;97084.72;5016287;28;20069;-55
2021/11/10 05:14:56;;;;;;;20.23;11.73;;;;;;;2.43;100.00;97077.03;5026625;28;20492;-59
2021/11/10 05:17:25;;;;;;;17.17;11.05;;;;;;;2.67;100.00;97067.09;5034320;28;20061;-57
2021/11/10 05:19:54;;;;;;;17.52;11.90;;;;;;;2.61;100.00;97063.03;5034736;28;20777;-54
2021/11/10 05:22:38;;;;;;;18.08;12.13;;;;;;;2.75;100.00;97063.19;5036474;28;20072;-58
2021/11/10 05:25:08;;;;;;;17.08;11.68;;;;;;;2.88;100.00;97068.53;5035547;28;20068;-56
2021/11/10 05:27:38;;;;;;;18.05;11.27;;;;;;;2.75;100.00;97081.41;5028870;28;20061;-57
2021/11/10 05:30:08;;;;;;;18.85;10.68;;;;;;;2.64;100.00;97086.31;5029852;28;20076;-58
2021/11/10 05:32:37;;;;;;;19.05;11.25;;;;;;;2.80;100.00;97076.78;5016640;28;20065;-57
2021/11/10 05:35:07;;;;;;;16.20;11.13;;;;;;;2.93;100.00;97074.38;5031484;28;20084;-59
2021/11/10 05:37:36;;;;;;;18.70;12.35;;;;;;;2.95;100.00;97064.69;5033142;28;20711;-59
2021/11/10 05:40:07;;;;;;;20.80;12.68;;;;;;;3.05;100.00;97068.47;5033549;28;20087;-56
2021/11/10 05:42:37;;;;;;;17.15;11.38;;;;;;;2.99;100.00;97062.75;5022899;28;20467;-61
2021/11/10 05:45:07;;;;;;;20.25;11.70;;;;;;;2.72;100.00;97065.06;5019544;28;20064;-61
2021/11/10 05:47:36;;;;;;;16.15;11.38;;;;;;;2.73;100.00;97069.38;5029747;28;20061;-62
2021/11/10 05:50:06;;;;;;;17.27;12.10;;;;;;;2.87;100.00;97069.47;5014965;28;20072;-63
2021/11/10 05:52:35;;;;;;;20.15;12.18;;;;;;;2.28;100.00;97078.66;5018683;28;20454;-63
2021/11/10 05:55:05;;;;;;;19.58;12.07;;;;;;;2.57;100.00;97077.16;5005173;28;20108;-62
2021/11/10 05:57:37;;;;;;;15.63;11.18;;;;;;;2.77;100.00;97073.50;5009241;28;20065;-64
2021/11/10 06:00:08;;;;;;;19.60;11.70;;;;;;;2.72;100.00;97072.88;4999515;28;20072;-62
2021/11/10 06:02:37;;;;;;;16.73;10.65;;;;;;;2.75;100.00;97078.81;5013493;28;20068;-62
2021/11/10 06:05:06;;;;;;;16.92;11.30;;;;;;;2.56;100.00;97085.88;4997623;28;20068;-63
2021/11/10 06:07:35;;;;;;;16.27;11.52;;;;;;;2.53;100.00;97086.03;5004546;28;20084;-63
2021/11/10 06:10:05;;;;;;;19.55;12.43;;;;;;;2.84;100.00;97085.25;5017340;28;20065;-62
2021/11/10 06:12:33;;;;;;;19.47;11.27;;;;;;;3.03;100.00;97077.31;5021203;28;20061;-63
2021/11/10 06:15:02;;;;;;;19.30;12.27;;;;;;;3.00;100.00;97075.72;5023477;28;20689;-63
2021/11/10 06:17:32;;;;;;;17.60;11.20;;;;;;;2.46;100.00;97079.47;5026170;28;20112;-64
2021/11/10 06:20:02;;;;;;;18.85;11.63;;;;;;;2.15;100.00;97091.44;5024140;28;20507;-61
2021/11/10 06:22:31;;;;;;;16.80;11.75;;;;;;;2.56;100.00;97085.88;5023035;28;20064;-64
2021/11/10 06:24:59;;;;;;;20.85;13.27;;;;;;;2.65;100.00;97076.72;5028605;28;20448;-60
2021/11/10 06:27:28;;;;;;;23.30;12.05;;;;;;;2.93;100.00;97086.56;5027335;28;20069;-61
2021/11/10 06:29:57;;;;;;;17.13;12.40;;;;;;;2.65;100.00;97095.81;5010800;28;20284;-60
2021/11/10 06:32:25;;;;;;;20.40;12.45;;;;;;;3.06;100.00;97096.22;5020002;28;20073;-64
2021/11/10 06:34:55;;;;;;;23.08;12.25;;;;;;;2.63;100.00;97100.25;5010851;28;20081;-63
2021/11/10 06:37:24;;;;;;;21.33;11.85;;;;;;;2.48;100.00;97103.66;5024610;28;20115;-62
2021/11/10 06:39:52;;;;;;;16.40;12.32;;;;;;;2.45;100.00;97107.25;5025689;28;20061;-62
2021/11/10 06:42:21;;;;;;;21.73;11.18;;;;;;;2.67;100.00;97113.97;5025636;28;20065;-63
2021/11/10 06:44:49;;;;;;;18.98;11.52;;;;;;;2.89;100.00;97124.94;5025803;28;20453;-59
2021/11/10 06:47:18;;;;;;;20.52;12.00;;;;;;;3.03;100.00;97116.41;5009053;28;20072;-63
2021/11/10 06:49:46;;;;;;;21.52;12.77;;;;;;;3.00;100.00;97120.00;5030572;28;20061;-63
2021/11/10 06:52:17;;;;;;;22.88;12.10;;;;;;;3.20;100.00;97118.06;5006251;28;20064;-62
2021/11/10 06:54:45;;;;;;;15.50;11.20;;;;;;;2.97;100.00;97124.53;5031293;28;20436;-62
2021/11/10 06:57:14;;;;;;;15.98;11.38;;;;;;;3.00;100.00;97124.38;5000925;28;20046;-62
2021/11/10 07:00:01;;;;;;;16.63;10.70;;;;;;;2.73;100.00;97131.88;5023614;28;20053;-61
2021/11/10 07:02:29;;;;;;;20.10;11.55;;;;;;;2.54;100.00;97132.81;5032139;28;20428;-62
2021/11/10 07:04:58;;;;;;;16.35;10.85;;;;;;;2.79;100.00;97126.34;5032272;28;20071;-63
2021/11/10 07:07:28;;;;;;;24.38;11.80;;;;;;;3.22;100.00;97132.72;5026104;28;20620;-62
2021/11/10 07:09:56;;;;;;;19.67;10.98;;;;;;;2.98;100.00;97126.22;5041390;28;20064;-63
2021/11/10 07:12:25;;;;;;;26.13;11.50;;;;;;;3.06;100.00;97121.41;5029548;28;20064;-62
2021/11/10 07:14:53;;;;;;;21.80;11.70;;;;;;;3.36;100.00;97121.53;5026251;28;20068;-61
2021/11/10 07:17:23;;;;;;;21.98;12.77;;;;;;;3.23;100.00;97117.91;5018702;28;20350;-62
2021/11/10 07:19:53;;;;;;;24.98;12.27;;;;;;;3.17;100.00;97120.88;5011913;28;20130;-63
2021/11/10 07:22:22;;;;;;;21.52;13.07;;;;;;;3.74;100.00;97122.00;5030298;28;20471;-62
2021/11/10 07:24:52;;;;;;;23.27;12.73;;;;;;;4.20;100.00;97116.78;5009827;28;20068;-63
2021/11/10 07:27:21;;;;;;;20.17;12.25;;;;;;;4.53;100.00;97113.94;5028015;28;20064;-62
2021/11/10 07:29:49;;;;;;;19.92;11.80;;;;;;;4.71;100.00;97105.94;5026169;28;20482;-61
2021/11/10 07:32:18;;;;;;;21.48;12.60;;;;;;;4.75;100.00;97113.53;5025872;28;20099;-61
2021/11/10 07:34:46;;;;;;;22.65;11.43;;;;;;;5.11;100.00;97117.44;5023878;28;20073;-63
2021/11/10 07:37:15;;;;;;;24.02;12.20;;;;;;;4.83;100.00;97118.28;5027332;28;20089;-62
2021/11/10 07:39:45;;;;;;;20.80;12.57;;;;;;;5.01;100.00;97108.47;5006667;28;20061;-63
2021/11/10 07:42:15;;;;;;;24.17;14.60;;;;;;;4.55;100.00;97113.88;5026701;28;20041;-61
2021/11/10 07:44:43;;;;;;;21.95;14.27;;;;;;;4.61;100.00;97105.69;5009710;28;20061;-61
2021/11/10 07:47:15;;;;;;;23.05;14.75;;;;;;;4.68;100.00;97109.59;5027489;28;20057;-62
2021/11/10 07:49:45;;;;;;;22.98;14.02;;;;;;;4.24;100.00;97107.84;5020914;28;20093;-63
2021/11/10 07:52:14;;;;;;;23.27;14.02;;;;;;;4.46;100.00;97102.19;5024025;28;20526;-61
2021/11/10 07:54:57;;;;;;;29.33;16.35;;;;;;;4.15;100.00;97117.97;5000606;28;20044;-63
2021/11/10 07:57:27;;;;;;;24.63;14.10;;;;;;;3.91;100.00;97109.78;5024078;28;20064;-61
2021/11/10 07:59:55;;;;;;;17.25;11.95;;;;;;;3.79;100.00;97108.72;5009038;28;20088;-62
2021/11/10 08:02:24;;;;;;;18.85;11.52;;;;;;;3.92;100.00;97099.28;5026929;28;20084;-61
2021/11/10 08:04:53;;;;;;;17.40;12.07;;;;;;;4.42;100.00;97098.09;5026901;28;20057;-61
2021/11/10 08:07:22;;;;;;;17.45;12.60;;;;;;;4.50;100.00;97108.06;5026640;28;20077;-62
2021/11/10 08:09:50;;;;;;;18.90;11.85;;;;;;;4.44;100.00;97104.06;5026110;28;20245;-59
2021/11/10 08:12:19;;;;;;;19.45;12.18;;;;;;;4.43;100.00;97097.16;5027198;28;20543;-62
2021/11/10 08:14:49;;;;;;;15.27;12.32;;;;;;;4.73;100.00;97114.53;5027291;28;20072;-63
2021/11/10 08:17:17;;;;;;;16.50;11.88;;;;;;;4.61;100.00;97104.81;4999851;28;20069;-62
2021/11/10 08:19:46;;;;;;;18.55;11.70;;;;;;;4.39;100.00;97100.88;5005673;28;20081;-61
2021/11/10 08:22:14;;;;;;;17.85;11.75;;;;;;;4.44;100.00;97111.03;5029658;28;20574;-61
2021/11/10 08:24:48;;;;;;;16.23;11.38;;;;;;;5.37;100.00;97097.50;5026788;28;20049;-62
2021/11/10 08:27:17;;;;;;;17.00;12.57;;;;;;;6.07;100.00;97101.78;5026656;28;20064;-62
2021/11/10 08:29:45;;;;;;;18.13;11.82;;;;;;;5.45;100.00;97104.88;5007686;28;20060;-61
2021/11/10 08:32:15;;;;;;;18.83;12.43;;;;;;;5.24;100.00;97110.50;5024976;28;20072;-62
2021/11/10 08:34:44;;;;;;;16.77;12.65;;;;;;;5.77;100.00;97096.72;5021343;28;20077;-63
2021/11/10 08:37:12;;;;;;;18.30;13.05;;;;;;;6.70;100.00;97090.53;5027668;28;20448;-62
2021/11/10 08:39:41;;;;;;;16.77;12.13;;;;;;;6.86;100.00;97078.06;5026793;28;20072;-62
2021/11/10 08:42:10;;;;;;;18.73;15.15;;;;;;;6.98;100.00;97080.75;5026600;28;20061;-63
2021/11/10 08:44:40;;;;;;;16.13;11.65;;;;;;;6.81;100.00;97085.41;5021108;28;20638;-62
2021/11/10 08:47:09;;;;;;;14.68;11.20;;;;;;;7.14;100.00;97084.00;5026318;28;20069;-60
2021/11/10 08:49:39;;;;;;;21.13;13.70;;;;;;;7.18;100.00;97087.22;5026725;28;20089;-62
2021/11/10 08:52:10;;;;;;;16.00;12.85;;;;;;;7.25;100.00;97091.09;5025471;28;20088;-63
2021/11/10 08:54:38;;;;;;;;;;;;;;;7.55;100.00;97090.72;5026739;28;20656;-62
2021/11/10 08:57:07;;;;;;;16.55;12.68;;;;;;;7.61;100.00;97095.53;5026289;28;19968;-63
2021/11/10 08:59:37;;;;;;;17.80;12.88;;;;;;;7.58;100.00;97093.94;5020977;28;20077;-63
2021/11/10 09:02:06;;;;;;;17.70;12.55;;;;;;;7.68;100.00;97086.25;5018427;28;20057;-63
2021/11/10 09:04:35;;;;;;;19.15;13.77;;;;;;;7.90;100.00;97095.19;5008042;28;20082;-62
2021/11/10 09:07:06;;;;;;;17.58;13.65;;;;;;;8.07;100.00;97092.16;5028776;28;20089;-62
2021/11/10 09:09:35;;;;;;;18.13;13.50;;;;;;;8.46;100.00;97087.50;5026461;28;20073;-62
2021/11/10 09:12:04;;;;;;;21.50;13.25;;;;;;;8.47;100.00;97083.97;5024985;28;20104;-62
2021/11/10 09:14:33;;;;;;;19.13;13.82;;;;;;;8.59;100.00;97093.53;5037476;28;20080;-62
2021/11/10 09:17:02;;;;;;;17.92;12.60;;;;;;;8.96;100.00;97077.56;5026093;28;20091;-62
2021/11/10 09:19:30;;;;;;;19.10;13.30;;;;;;;8.86;100.00;97081.84;5026530;28;20084;-61
2021/11/10 09:21:59;;;;;;;17.42;12.73;;;;;;;8.62;100.00;97093.28;5028727;28;20789;-62
2021/11/10 09:24:29;;;;;;;16.10;11.98;;;;;;;9.22;100.00;97094.78;5026108;28;20068;-61
2021/11/10 09:26:57;;;;;;;21.02;12.85;;;;;;;9.19;100.00;97091.56;5026437;28;20080;-62
2021/11/10 09:29:26;;;;;;;15.88;12.70;;;;;;;9.49;100.00;97096.16;5025096;28;20060;-63
2021/11/10 09:31:55;;;;;;;16.30;12.93;;;;;;;9.66;100.00;97108.81;5016406;28;20057;-62
2021/11/10 09:34:23;;;;;;;23.50;14.95;;;;;;;9.86;100.00;97095.84;5028339;28;20089;-62
2021/11/10 09:36:53;;;;;;;26.45;14.07;;;;;;;9.93;100.00;97099.66;5029438;28;20077;-62
2021/11/10 09:39:24;;;;;;;19.97;13.63;;;;;;;8.76;100.00;97100.13;5011134;28;20152;-63
2021/11/10 09:41:55;;;;;;;21.02;13.43;;;;;;;9.09;100.00;97091.44;5023083;28;20069;-63
2021/11/10 09:44:26;;;;;;;19.05;13.15;;;;;;;8.23;100.00;97097.94;5025503;28;20069;-63
2021/11/10 09:46:55;;;;;;;20.85;14.35;;;;;;;8.70;100.00;97098.78;5017837;28;20070;-63
2021/11/10 09:49:24;;;;;;;19.92;14.00;;;;;;;9.82;100.00;97099.69;5025687;28;20093;-63
2021/11/10 09:51:52;;;;;;;17.55;13.27;;;;;;;9.58;100.00;97100.72;5029386;28;20084;-63
2021/11/10 09:54:20;;;;;;;21.08;13.68;;;;;;;9.73;100.00;97098.63;5029490;28;20073;-63
2021/11/10 09:56:51;;;;;;;17.63;13.38;;;;;;;10.02;100.00;97106.00;5029422;28;20165;-63
2021/11/10 09:59:21;;;;;;;20.70;14.50;;;;;;;9.99;100.00;97100.00;5029770;28;20500;-63
2021/11/10 10:01:49;;;;;;;20.60;14.75;;;;;;;10.18;100.00;97098.47;5029095;28;20068;-63
2021/11/10 10:04:18;;;;;;;20.92;14.05;;;;;;;10.34;100.00;97079.63;5031530;28;20477;-63
2021/11/10 10:06:47;;;;;;;19.52;13.98;;;;;;;10.19;100.00;97087.81;5029399;28;20065;-63
2021/11/10 10:09:18;;;;;;;18.67;13.00;;;;;;;10.47;100.00;97071.53;5029145;28;20068;-63
2021/11/10 10:11:46;;;;;;;21.08;13.60;;;;;;;10.29;100.00;97085.31;5023491;28;20091;-63
2021/11/10 10:14:15;;;;;;;17.42;13.00;;;;;;;10.21;100.00;97091.16;5029018;28;20107;-63
2021/11/10 10:16:45;;;;;;;16.63;12.48;;;;;;;10.30;100.00;97073.78;5028286;28;20084;-62
2021/11/10 10:19:14;;;;;;;18.88;13.88;;;;;;;10.78;100.00;97067.16;5031734;28;20092;-62
2021/11/10 10:21:44;;;;;;;17.67;13.43;;;;;;;10.50;100.00;97066.03;5028613;28;20105;-62
2021/11/10 10:24:15;;;;;;;20.25;13.70;;;;;;;10.64;100.00;97063.88;5024488;28;20467;-62
2021/11/10 10:26:44;;;;;;;18.55;13.02;;;;;;;10.31;100.00;97056.16;5017521;28;20528;-63
2021/11/10 10:29:13;;;;;;;18.60;13.55;;;;;;;10.30;100.00;97057.97;5025725;28;20452;-62
2021/11/10 10:31:43;;;;;;;;;;;;;;;10.82;100.00;97058.00;5028866;28;20542;-62
2021/11/10 10:34:16;;;;;;;18.85;13.40;;;;;;;10.51;100.00;97051.88;5031072;28;19952;-63
2021/11/10 10:36:46;;;;;;;17.40;12.82;;;;;;;10.63;100.00;97033.19;5027872;28;20065;-63
2021/11/10 10:39:16;;;;;;;18.40;13.05;;;;;;;10.31;100.00;97037.72;5028805;28;20065;-61
2021/11/10 10:41:47;;;;;;;19.55;11.68;;;;;;;10.06;100.00;97021.28;5025077;28;20480;-63
2021/11/10 10:44:18;;;;;;;16.27;12.50;;;;;;;10.41;100.00;97009.59;5027037;28;20076;-63
2021/11/10 10:46:48;;;;;;;17.00;12.80;;;;;;;10.81;100.00;97022.88;5027965;28;20538;-61
2021/11/10 10:49:23;;;;;;;18.30;13.25;;;;;;;10.62;100.00;97036.78;5031345;28;20494;-63
2021/11/10 10:51:52;;;;;;;20.65;13.25;;;;;;;11.08;100.00;97024.94;5023067;28;20061;-63
2021/11/10 10:54:28;;;;;;;15.43;12.50;;;;;;;10.20;100.00;97023.59;5028132;28;20065;-63
2021/11/10 10:56:59;;;;;;;16.02;12.63;;;;;;;10.17;100.00;97034.41;5022670;28;20487;-62
2021/11/10 10:59:28;;;;;;;15.13;12.50;;;;;;;11.54;100.00;97027.94;5028376;28;20562;-61
2021/11/10 11:01:58;;;;;;;17.13;12.23;;;;;;;10.87;100.00;97032.03;5028213;28;20069;-63
2021/11/10 11:04:29;;;;;;;15.18;12.00;;;;;;;11.29;100.00;97018.75;5028270;28;20069;-60
2021/11/10 11:07:01;;;;;;;18.45;11.60;;;;;;;11.38;100.00;97010.81;5026071;28;20088;-61
2021/11/10 11:09:33;;;;;;;18.63;13.88;;;;;;;10.33;100.00;96993.63;5024122;28;20471;-61
2021/11/10 11:12:04;;;;;;;18.30;13.93;;;;;;;11.01;100.00;96991.25;5023676;28;20088;-61
2021/11/10 11:14:44;;;;;;;16.90;12.93;;;;;;;11.39;100.00;96994.00;5027110;28;20081;-63
2021/11/10 11:17:30;;;;;;;19.02;13.20;;;;;;;11.30;100.00;97001.91;5027914;28;20072;-62
2021/11/10 11:20:02;;;;;;;17.55;13.30;;;;;;;10.91;100.00;96996.53;5018323;28;20069;-62
2021/11/10 11:22:34;;;;;;;19.20;13.85;;;;;;;11.01;100.00;96986.84;5013551;28;20069;-63
2021/11/10 11:25:11;;;;;;;19.10;14.10;;;;;;;11.35;100.00;96979.38;5024149;28;20168;-63
2021/11/10 11:27:41;;;;;;;21.10;12.48;;;;;;;11.26;100.00;96972.31;5027441;28;20073;-62
2021/11/10 11:30:12;;;;;;;16.35;11.85;;;;;;;10.58;100.00;96979.16;5028020;28;20076;-62